createdAt,value
2024-05-09T00:01:58.326Z,22
2024-05-09T00:06:49.335Z,21.99
2024-05-09T00:11:40.353Z,21.98
2024-05-09T00:16:31.170Z,21.97
2024-05-09T00:21:21.659Z,21.96
2024-05-09T00:26:12.715Z,21.95
2024-05-09T00:31:03.439Z,21.95
2024-05-09T00:35:54.657Z,21.94
2024-05-09T00:40:45.149Z,21.92
2024-05-09T00:50:33.575Z,21.89
2024-05-09T01:00:18.309Z,21.88
2024-05-09T01:09:51.715Z,21.86
2024-05-09T01:19:32.778Z,21.84
2024-05-09T01:29:15.292Z,21.83
2024-05-09T01:38:56.026Z,21.81
2024-05-09T01:48:38.117Z,21.8
2024-05-09T01:58:19.970Z,21.76
2024-05-09T02:08:01.491Z,21.75
2024-05-09T02:17:43.495Z,21.73
2024-05-09T02:27:26.139Z,21.72
2024-05-09T02:37:07.442Z,21.68
2024-05-09T02:46:49.516Z,21.67
2024-05-09T02:56:31.279Z,21.67
2024-05-09T03:01:22.257Z,21.66
2024-05-09T03:06:13.277Z,21.64
2024-05-09T03:11:04.070Z,21.63
2024-05-09T03:15:54.647Z,21.62
2024-05-09T03:20:45.672Z,21.61
2024-05-09T03:25:36.686Z,21.61
2024-05-09T03:30:30.707Z,21.6
2024-05-09T03:35:18.368Z,21.6
2024-05-09T03:40:11.899Z,21.58
2024-05-09T03:45:00.629Z,21.57
2024-05-09T03:49:51.906Z,21.58
2024-05-09T03:54:41.620Z,21.56
2024-05-09T03:59:32.533Z,21.56
2024-05-09T04:04:23.489Z,21.55
2024-05-09T04:09:14.594Z,21.55
2024-05-09T04:14:05.669Z,21.53
2024-05-09T04:18:56.746Z,21.52
2024-05-09T04:23:47.658Z,21.52
2024-05-09T04:28:38.833Z,21.51
2024-05-09T04:33:29.836Z,21.48
2024-05-09T04:38:20.575Z,21.43
2024-05-09T04:43:11.452Z,21.43
2024-05-09T04:48:02.540Z,21.38
2024-05-09T04:52:53.103Z,21.34
2024-05-09T04:57:44.433Z,21.35
2024-05-09T05:02:35.358Z,21.38
2024-05-09T05:07:26.486Z,21.37
2024-05-09T05:12:17.365Z,21.45
2024-05-09T05:17:08.309Z,21.5
2024-05-09T05:21:59.507Z,21.4
2024-05-09T05:26:52.229Z,21.4
2024-05-09T05:31:41.701Z,21.36
2024-05-09T05:36:32.485Z,21.34
2024-05-09T05:41:23.427Z,21.3
2024-05-09T05:46:14.664Z,21.31
2024-05-09T05:51:05.639Z,21.39
2024-05-09T05:55:56.407Z,21.3
2024-05-09T06:00:48.395Z,21.37
2024-05-09T06:05:39.029Z,21.41
2024-05-09T06:10:34.667Z,21.43
2024-05-09T06:15:20.851Z,21.53
2024-05-09T06:20:16.682Z,21.52
2024-05-09T06:25:02.580Z,21.55
2024-05-09T06:29:57.274Z,21.58
2024-05-09T06:34:46.888Z,21.61
2024-05-09T06:39:37.673Z,21.68
2024-05-09T06:44:28.680Z,21.73
2024-05-09T06:49:19.800Z,21.65
2024-05-09T06:54:10.684Z,21.69
2024-05-09T06:59:02.119Z,21.77
2024-05-09T07:03:53.057Z,21.76
2024-05-09T07:08:43.663Z,21.76
2024-05-09T07:13:34.914Z,21.77
2024-05-09T07:18:25.719Z,21.87
2024-05-09T07:23:16.466Z,21.89
2024-05-09T07:28:07.087Z,21.91
2024-05-09T07:32:58.189Z,21.92
2024-05-09T07:37:49.512Z,21.92
2024-05-09T07:42:40.339Z,21.92
2024-05-09T07:48:13.874Z,21.88
2024-05-09T07:53:08.448Z,21.75
2024-05-09T07:57:13.548Z,21.7
2024-05-09T08:02:04.664Z,21.67
2024-05-09T08:06:57.711Z,21.62
2024-05-09T08:11:47.435Z,21.57
2024-05-09T08:16:38.842Z,21.54
2024-05-09T08:21:29.795Z,21.53
2024-05-09T08:26:20.481Z,21.46
2024-05-09T08:31:14.391Z,21.46
2024-05-09T08:36:03.688Z,21.45
2024-05-09T08:40:54.543Z,21.4
2024-05-09T08:45:45.847Z,21.4
2024-05-09T08:50:38.425Z,21.35
2024-05-09T08:55:27.449Z,21.41
2024-05-09T09:00:25.534Z,21.39
2024-05-09T09:05:10.062Z,21.41
2024-05-09T09:10:00.580Z,21.43
2024-05-09T09:14:51.654Z,21.45
2024-05-09T09:19:42.763Z,21.43
2024-05-09T09:24:33.689Z,21.41
2024-05-09T09:29:24.301Z,21.4
2024-05-09T09:34:15.277Z,21.43
2024-05-09T09:39:06.349Z,21.4
2024-05-09T09:43:57.300Z,21.43
2024-05-09T09:48:48.546Z,21.37
2024-05-09T09:53:39.333Z,21.4
2024-05-09T09:58:30.499Z,21.39
2024-05-09T10:03:21.619Z,21.39
2024-05-09T10:08:12.596Z,21.4
2024-05-09T10:13:03.502Z,21.43
2024-05-09T10:17:54.799Z,21.41
2024-05-09T10:22:45.333Z,21.45
2024-05-09T10:27:36.298Z,21.48
2024-05-09T10:32:27.429Z,21.54
2024-05-09T10:37:18.392Z,21.57
2024-05-09T10:42:09.145Z,21.61
2024-05-09T10:47:00.279Z,21.6
2024-05-09T10:51:52.010Z,21.63
2024-05-09T10:56:42.282Z,21.65
2024-05-09T11:01:33.305Z,21.7
2024-05-09T11:06:24.533Z,21.76
2024-05-09T11:11:15.441Z,21.82
2024-05-09T11:16:06.804Z,21.8
2024-05-09T11:20:57.823Z,21.83
2024-05-09T11:25:48.949Z,21.9
2024-05-09T11:30:39.771Z,21.93
2024-05-09T11:35:34.404Z,21.88
2024-05-09T11:40:25.143Z,21.95
2024-05-09T11:45:14.276Z,21.91
2024-05-09T11:50:07.843Z,21.95
2024-05-09T11:54:56.496Z,22.02
2024-05-09T11:59:47.252Z,22.03
2024-05-09T12:04:39.356Z,22.05
2024-05-09T12:09:30.129Z,22.09
2024-05-09T12:14:20.795Z,22.13
2024-05-09T12:19:12.181Z,22.16
2024-05-09T12:24:02.506Z,22.18
2024-05-09T12:28:53.598Z,22.27
2024-05-09T12:33:44.544Z,22.24
2024-05-09T12:38:35.412Z,22.31
2024-05-09T12:43:26.705Z,22.35
2024-05-09T12:48:17.451Z,22.4
2024-05-09T12:53:08.308Z,22.45
2024-05-09T12:57:59.350Z,22.52
2024-05-09T13:02:50.822Z,22.5
2024-05-09T13:07:41.512Z,22.52
2024-05-09T13:12:32.901Z,22.54
2024-05-09T13:17:23.817Z,22.52
2024-05-09T13:22:14.504Z,22.55
2024-05-09T13:27:04.900Z,22.58
2024-05-09T13:31:55.708Z,22.59
2024-05-09T13:36:47.748Z,22.62
2024-05-09T13:41:38.489Z,22.63
2024-05-09T13:46:29.427Z,22.63
2024-05-09T13:51:20.319Z,22.61
2024-05-09T13:56:11.269Z,22.65
2024-05-09T14:01:01.895Z,22.65
2024-05-09T14:05:54.393Z,22.64
2024-05-09T14:10:44.945Z,22.66
2024-05-09T14:15:35.532Z,22.61
2024-05-09T14:20:29.954Z,22.61
2024-05-09T14:25:17.824Z,22.63
2024-05-09T14:30:14.700Z,22.6
2024-05-09T14:39:51.722Z,22.62
2024-05-09T14:49:33.395Z,22.64
2024-05-09T14:59:15.573Z,22.66
2024-05-09T15:08:56.865Z,22.67
2024-05-09T15:18:39.972Z,22.66
2024-05-09T15:28:21.492Z,22.65
2024-05-09T15:38:04.685Z,22.73
2024-05-09T15:47:45.864Z,22.8
2024-05-09T15:57:27.790Z,22.88
2024-05-09T16:07:09.728Z,23.16
2024-05-09T16:16:52.514Z,23.33
2024-05-09T16:26:34.292Z,23.52
2024-05-09T16:36:16.564Z,23.67
2024-05-09T16:41:07.590Z,23.71
2024-05-09T16:45:58.962Z,23.85
2024-05-09T16:54:59.434Z,24.02
2024-05-09T17:04:40.989Z,23.93
2024-05-09T17:14:22.506Z,23.89
2024-05-09T17:24:04.458Z,23.69
2024-05-09T17:33:47.064Z,23.57
2024-05-09T17:43:28.764Z,23.46
2024-05-09T17:48:19.619Z,23.43
2024-05-09T17:53:10.419Z,23.35
2024-05-09T18:02:52.592Z,23.2
2024-05-09T18:12:34.395Z,23.16
2024-05-09T18:17:25.878Z,23.13
2024-05-09T18:22:16.617Z,23.1
2024-05-09T18:27:07.652Z,23.07
2024-05-09T18:31:58.958Z,23.03
2024-05-09T18:36:50.998Z,22.95
2024-05-09T18:41:41.013Z,22.91
2024-05-09T18:46:31.844Z,22.85
2024-05-09T18:51:22.737Z,22.82
2024-05-09T18:56:13.798Z,22.78
2024-05-09T19:01:05.233Z,22.76
2024-05-09T19:05:56.061Z,22.73
2024-05-09T19:10:46.831Z,22.71
2024-05-09T19:15:37.929Z,22.76
2024-05-09T19:20:33.127Z,22.82
2024-05-09T19:25:19.870Z,22.78
2024-05-09T19:30:14.308Z,22.82
2024-05-09T19:35:01.989Z,22.81
2024-05-09T19:39:53.053Z,22.85
2024-05-09T19:44:43.784Z,22.88
2024-05-09T19:49:35.646Z,22.89
2024-05-09T19:54:26.189Z,22.85
2024-05-09T19:57:47.249Z,22.87
2024-05-09T20:02:37.279Z,22.93
2024-05-09T20:07:28.202Z,22.88
2024-05-09T20:17:10.429Z,22.82
2024-05-09T20:26:52.668Z,22.77
2024-05-09T20:36:36.444Z,22.69
2024-05-09T20:46:18.949Z,22.64
2024-05-09T20:56:01.077Z,22.58
2024-05-09T21:05:43.074Z,22.54
2024-05-09T21:10:34.572Z,22.52
2024-05-09T21:15:25.247Z,22.51
2024-05-09T21:20:17.623Z,22.5
2024-05-09T21:25:07.749Z,22.49
2024-05-09T21:29:58.674Z,22.49
2024-05-09T21:34:50.981Z,22.48
2024-05-09T21:39:40.540Z,22.47
2024-05-09T21:44:31.658Z,22.45
2024-05-09T21:49:22.607Z,22.46
2024-05-09T21:54:13.999Z,22.44
2024-05-09T21:59:04.667Z,22.44
2024-05-09T22:03:55.933Z,22.43
2024-05-09T22:08:46.862Z,22.42
2024-05-09T22:13:38.082Z,22.41
2024-05-09T22:18:28.826Z,22.4
2024-05-09T22:23:19.584Z,22.39
2024-05-09T22:28:10.720Z,22.38
2024-05-09T22:33:02.048Z,22.39
2024-05-09T22:37:52.781Z,22.37
2024-05-09T22:42:44.094Z,22.37
2024-05-09T22:47:35.065Z,22.36
2024-05-09T22:52:26.182Z,22.34
2024-05-09T22:57:16.864Z,22.32
2024-05-09T23:02:08.014Z,22.33
2024-05-09T23:06:59.963Z,22.34
2024-05-09T23:11:50.990Z,22.32
2024-05-09T23:16:41.453Z,22.31
2024-05-09T23:21:32.670Z,22.3
2024-05-09T23:26:23.421Z,22.3
2024-05-09T23:31:14.688Z,22.31
2024-05-09T23:36:06.303Z,22.29
2024-05-09T23:40:56.698Z,22.29
2024-05-09T23:45:48.057Z,22.28
2024-05-09T23:50:39.856Z,22.27
2024-05-09T23:55:29.798Z,22.28
